createdAt,value
2018-09-03T00:00:33.925Z,17.30
2018-09-03T00:03:38.848Z,17.18
2018-09-03T00:06:43.789Z,17.26
2018-09-03T00:09:48.748Z,17.27
2018-09-03T00:12:53.681Z,17.25
2018-09-03T00:15:58.604Z,17.20
2018-09-03T00:19:03.552Z,17.23
2018-09-03T00:22:08.480Z,17.24
2018-09-03T00:25:13.422Z,17.28
2018-09-03T00:28:18.346Z,17.24
2018-09-03T00:31:29.014Z,17.29
2018-09-03T00:34:39.640Z,17.30
2018-09-03T00:37:50.440Z,17.33
2018-09-03T00:41:01.210Z,17.36
2018-09-03T00:44:11.843Z,17.36
2018-09-03T00:47:16.877Z,17.32
2018-09-03T00:50:21.826Z,17.36
2018-09-03T00:53:26.835Z,17.29
2018-09-03T00:56:31.789Z,17.26
2018-09-03T00:59:36.734Z,17.23
2018-09-03T01:02:41.656Z,17.20
2018-09-03T01:05:46.576Z,17.11
2018-09-03T01:08:51.486Z,17.10
2018-09-03T01:11:56.466Z,17.18
2018-09-03T01:15:01.406Z,17.22
2018-09-03T01:18:06.322Z,17.21
2018-09-03T01:21:11.550Z,17.22
2018-09-03T01:24:16.457Z,17.25
2018-09-03T01:27:21.354Z,17.28
2018-09-03T01:30:26.324Z,17.30
2018-09-03T01:33:31.237Z,17.28
2018-09-03T01:36:36.146Z,17.25
2018-09-03T01:39:41.084Z,17.25
2018-09-03T01:42:46.013Z,17.26
2018-09-03T01:45:50.930Z,17.29
2018-09-03T01:48:55.909Z,17.30
2018-09-03T01:52:00.821Z,17.24
2018-09-03T01:55:05.782Z,17.19
2018-09-03T01:58:10.696Z,17.20
2018-09-03T02:01:15.615Z,17.21
2018-09-03T02:04:20.534Z,17.23
2018-09-03T02:07:25.449Z,17.23
2018-09-03T02:10:30.370Z,17.27
2018-09-03T02:13:35.316Z,17.27
2018-09-03T02:16:40.240Z,17.30
2018-09-03T02:19:45.165Z,17.29
2018-09-03T02:22:50.072Z,17.06
2018-09-03T02:25:54.993Z,16.87
2018-09-03T02:28:59.901Z,16.90
2018-09-03T02:32:05.053Z,16.97
2018-09-03T02:35:09.973Z,17.02
2018-09-03T02:38:14.881Z,17.03
2018-09-03T02:41:19.788Z,17.03
2018-09-03T02:44:24.689Z,16.99
2018-09-03T02:47:29.645Z,16.79
2018-09-03T02:50:34.552Z,16.81
2018-09-03T02:53:39.476Z,16.84
2018-09-03T02:56:44.401Z,16.88
2018-09-03T02:59:49.373Z,16.83
2018-09-03T03:02:55.632Z,16.81
2018-09-03T03:06:00.569Z,16.79
2018-09-03T03:09:06.936Z,16.78
2018-09-03T03:12:13.249Z,16.76
2018-09-03T03:15:18.178Z,16.76
2018-09-03T03:18:23.121Z,16.76
2018-09-03T03:21:28.129Z,16.76
2018-09-03T03:24:33.101Z,16.78
2018-09-03T03:27:38.032Z,16.76
2018-09-03T03:30:43.009Z,16.71
2018-09-03T03:33:47.956Z,16.68
2018-09-03T03:36:52.880Z,16.59
2018-09-03T03:39:57.817Z,16.59
2018-09-03T03:43:02.749Z,16.62
2018-09-03T03:46:07.653Z,16.62
2018-09-03T03:49:12.653Z,16.57
2018-09-03T03:52:17.593Z,16.53
2018-09-03T03:55:22.549Z,16.40
2018-09-03T03:58:27.507Z,16.34
2018-09-03T04:01:32.451Z,16.35
2018-09-03T04:04:37.367Z,16.35
2018-09-03T04:07:42.305Z,16.33
2018-09-03T04:10:47.212Z,16.38
2018-09-03T04:13:52.113Z,16.37
2018-09-03T04:16:57.022Z,16.29
2018-09-03T04:20:03.018Z,16.29
2018-09-03T04:23:07.998Z,16.33
2018-09-03T04:26:12.872Z,16.45
2018-09-03T04:29:17.857Z,16.49
2018-09-03T04:32:22.973Z,16.54
2018-09-03T04:35:27.900Z,16.39
2018-09-03T04:38:32.870Z,16.34
2018-09-03T04:41:38.153Z,16.35
2018-09-03T04:44:43.072Z,16.41
2018-09-03T04:47:47.981Z,16.48
2018-09-03T04:50:52.888Z,16.51
2018-09-03T04:53:57.825Z,16.54
2018-09-03T04:57:02.763Z,16.57
2018-09-03T05:00:07.721Z,16.59
2018-09-03T05:03:12.649Z,16.60
2018-09-03T05:06:17.592Z,16.61
2018-09-03T05:09:22.831Z,16.61
2018-09-03T05:12:27.769Z,16.62
2018-09-03T05:15:32.713Z,16.62
2018-09-03T05:18:37.661Z,16.67
2018-09-03T05:21:42.581Z,16.70
2018-09-03T05:24:47.513Z,16.72
2018-09-03T05:27:52.424Z,16.71
2018-09-03T05:30:57.376Z,16.72
2018-09-03T05:34:02.277Z,16.76
2018-09-03T05:37:07.196Z,16.81
2018-09-03T05:40:12.137Z,16.82
2018-09-03T05:43:17.179Z,16.82
2018-09-03T05:46:22.018Z,16.81
2018-09-03T05:49:26.946Z,16.84
2018-09-03T05:52:31.878Z,16.87
2018-09-03T05:55:36.845Z,16.90
2018-09-03T05:58:41.842Z,16.95
2018-09-03T06:01:46.818Z,16.95
2018-09-03T06:04:51.808Z,16.96
2018-09-03T06:07:56.729Z,16.96
2018-09-03T06:11:01.680Z,16.99
2018-09-03T06:14:06.602Z,17.06
2018-09-03T06:17:11.682Z,17.15
2018-09-03T06:20:16.614Z,17.21
2018-09-03T06:23:21.609Z,17.21
2018-09-03T06:26:26.548Z,17.26
2018-09-03T06:29:31.497Z,17.34
2018-09-03T06:32:36.409Z,17.47
2018-09-03T06:35:41.336Z,17.51
2018-09-03T06:38:46.273Z,17.57
2018-09-03T06:41:51.218Z,17.64
2018-09-03T06:44:56.201Z,17.77
2018-09-03T06:48:01.138Z,17.85
2018-09-03T06:51:06.110Z,17.90
2018-09-03T06:54:11.081Z,17.96
2018-09-03T06:57:16.052Z,18.01
2018-09-03T07:00:21.018Z,18.02
2018-09-03T07:03:26.045Z,18.08
2018-09-03T07:06:30.993Z,18.08
2018-09-03T07:09:35.947Z,18.06
2018-09-03T07:12:41.325Z,18.13
2018-09-03T07:15:46.272Z,18.07
2018-09-03T07:18:51.305Z,17.99
2018-09-03T07:21:56.120Z,18.19
2018-09-03T07:25:01.069Z,18.32
2018-09-03T07:28:05.972Z,18.43
2018-09-03T07:31:10.874Z,18.35
2018-09-03T07:34:15.785Z,18.55
2018-09-03T07:37:20.714Z,18.78
2018-09-03T07:40:25.626Z,18.65
2018-09-03T07:43:30.556Z,18.60
2018-09-03T07:46:35.475Z,18.70
2018-09-03T07:49:40.400Z,18.87
2018-09-03T07:52:45.318Z,19.14
2018-09-03T07:55:50.261Z,19.25
2018-09-03T07:58:55.165Z,19.32
2018-09-03T08:02:00.129Z,19.43
2018-09-03T08:05:05.643Z,19.46
2018-09-03T08:08:10.572Z,19.45
2018-09-03T08:11:15.528Z,19.58
2018-09-03T08:14:20.473Z,19.53
2018-09-03T08:17:25.577Z,19.80
2018-09-03T08:20:30.745Z,20.03
2018-09-03T08:23:35.686Z,19.89
2018-09-03T08:26:40.660Z,19.78
2018-09-03T08:29:45.733Z,19.82
2018-09-03T08:32:51.467Z,19.77
2018-09-03T08:35:56.937Z,19.90
2018-09-03T08:39:01.928Z,20.35
2018-09-03T08:42:06.970Z,20.71
2018-09-03T08:45:11.937Z,20.74
2018-09-03T08:48:16.940Z,20.77
2018-09-03T08:51:21.893Z,20.44
2018-09-03T08:54:26.873Z,20.64
2018-09-03T08:57:31.857Z,20.46
2018-09-03T09:00:36.804Z,19.89
2018-09-03T09:03:43.015Z,20.11
2018-09-03T09:06:48.124Z,20.48
2018-09-03T09:09:53.191Z,20.87
2018-09-03T09:12:58.140Z,20.90
2018-09-03T09:16:03.080Z,20.99
2018-09-03T09:19:08.022Z,21.02
2018-09-03T09:22:12.942Z,21.34
2018-09-03T09:25:17.873Z,21.44
2018-09-03T09:28:22.792Z,21.56
2018-09-03T09:31:27.737Z,21.94
2018-09-03T09:34:32.667Z,22.43
2018-09-03T09:37:37.605Z,22.47
2018-09-03T09:40:42.541Z,22.72
2018-09-03T09:43:47.509Z,22.70
2018-09-03T09:46:52.452Z,22.34
2018-09-03T09:49:57.473Z,21.98
2018-09-03T09:53:02.404Z,22.01
2018-09-03T09:56:07.419Z,22.17
2018-09-03T09:59:12.378Z,22.26
2018-09-03T10:02:17.361Z,22.32
2018-09-03T10:05:22.318Z,22.46
2018-09-03T10:08:27.268Z,22.67
2018-09-03T10:11:32.281Z,22.38
2018-09-03T10:14:37.213Z,22.24
2018-09-03T10:17:42.190Z,22.16
2018-09-03T10:20:47.193Z,21.95
2018-09-03T10:23:52.278Z,21.98
2018-09-03T10:26:57.249Z,22.14
2018-09-03T10:30:02.241Z,21.95
2018-09-03T10:33:07.216Z,21.76
2018-09-03T10:36:12.184Z,21.81
2018-09-03T10:39:17.696Z,21.87
2018-09-03T10:42:24.523Z,22.00
2018-09-03T10:45:29.481Z,22.22
2018-09-03T10:48:34.461Z,22.47
2018-09-03T10:51:39.542Z,22.81
2018-09-03T10:54:44.764Z,22.88
2018-09-03T10:57:49.788Z,23.06
2018-09-03T11:00:54.736Z,23.00
2018-09-03T11:03:59.752Z,22.82
2018-09-03T11:07:04.831Z,22.86
2018-09-03T11:10:09.784Z,23.04
2018-09-03T11:13:14.784Z,23.19
2018-09-03T11:16:19.718Z,23.59
2018-09-03T11:19:27.006Z,24.06
2018-09-03T11:22:32.009Z,24.04
2018-09-03T11:25:36.946Z,24.26
2018-09-03T11:28:41.934Z,24.27
2018-09-03T11:31:46.877Z,24.08
2018-09-03T11:34:51.840Z,24.39
2018-09-03T11:37:56.804Z,24.76
2018-09-03T11:41:01.781Z,25.16
2018-09-03T11:44:07.179Z,24.68
2018-09-03T11:47:12.174Z,24.19
2018-09-03T11:50:17.769Z,23.91
2018-09-03T11:53:22.725Z,23.93
2018-09-03T11:56:27.678Z,23.88
2018-09-03T11:59:32.636Z,23.89
2018-09-03T12:02:37.609Z,23.79
2018-09-03T12:05:42.593Z,24.09
2018-09-03T12:08:47.579Z,24.39
2018-09-03T12:11:52.550Z,24.09
2018-09-03T12:15:00.262Z,24.31
2018-09-03T12:18:05.290Z,24.51
2018-09-03T12:21:11.334Z,24.68
2018-09-03T12:24:16.209Z,24.46
2018-09-03T12:27:21.587Z,24.35
2018-09-03T12:30:26.554Z,23.75
2018-09-03T12:33:31.927Z,23.92
2018-09-03T12:36:36.909Z,24.07
2018-09-03T12:39:42.125Z,23.87
2018-09-03T12:42:47.414Z,24.10
2018-09-03T12:45:58.501Z,24.40
2018-09-03T12:49:04.031Z,24.42
2018-09-03T12:52:09.390Z,24.44
2018-09-03T12:55:14.956Z,24.44
2018-09-03T12:58:20.022Z,24.66
2018-09-03T13:01:25.022Z,24.07
2018-09-03T13:04:30.176Z,23.75
2018-09-03T13:07:35.085Z,23.44
2018-09-03T13:10:40.154Z,23.53
2018-09-03T13:13:45.100Z,23.48
2018-09-03T13:16:50.038Z,23.66
2018-09-03T13:19:54.988Z,23.81
2018-09-03T13:22:59.988Z,23.68
2018-09-03T13:26:04.995Z,23.85
2018-09-03T13:29:09.934Z,24.06
2018-09-03T13:32:15.118Z,24.26
2018-09-03T13:35:20.367Z,24.30
2018-09-03T13:38:25.356Z,24.36
2018-09-03T13:41:30.361Z,24.48
2018-09-03T13:44:35.372Z,24.50
2018-09-03T13:47:40.406Z,24.39
2018-09-03T13:50:45.875Z,24.25
2018-09-03T13:53:50.856Z,24.37
2018-09-03T13:56:56.142Z,24.57
2018-09-03T14:00:01.161Z,24.23
2018-09-03T14:03:06.649Z,24.25
2018-09-03T14:06:11.682Z,24.43
2018-09-03T14:09:16.959Z,24.54
2018-09-03T14:12:22.197Z,24.55
2018-09-03T14:15:27.233Z,24.85
2018-09-03T14:18:32.342Z,24.79
2018-09-03T14:21:37.403Z,24.55
2018-09-03T14:24:42.359Z,24.58
2018-09-03T14:27:47.377Z,24.59
2018-09-03T14:30:52.337Z,24.45
2018-09-03T14:33:58.256Z,24.54
2018-09-03T14:37:03.389Z,24.31
2018-09-03T14:40:08.340Z,23.99
2018-09-03T14:43:13.562Z,23.98
2018-09-03T14:46:18.917Z,23.80
2018-09-03T14:49:24.406Z,23.98
2018-09-03T14:52:29.386Z,23.90
2018-09-03T14:55:34.371Z,23.96
2018-09-03T14:58:39.376Z,24.12
2018-09-03T15:01:44.826Z,24.26
2018-09-03T15:04:49.879Z,24.27
2018-09-03T15:07:54.853Z,23.97
2018-09-03T15:10:59.874Z,23.83
2018-09-03T15:14:05.250Z,23.48
2018-09-03T15:17:10.244Z,23.33
2018-09-03T15:20:15.237Z,23.52
2018-09-03T15:23:20.263Z,23.49
2018-09-03T15:26:25.482Z,23.44
2018-09-03T15:29:30.453Z,23.34
2018-09-03T15:32:35.604Z,23.21
2018-09-03T15:35:40.619Z,23.12
2018-09-03T15:38:45.669Z,23.31
2018-09-03T15:41:50.652Z,23.42
2018-09-03T15:44:55.712Z,23.60
2018-09-03T15:48:00.766Z,23.60
2018-09-03T15:51:05.927Z,23.38
2018-09-03T15:54:11.147Z,23.43
2018-09-03T15:57:16.069Z,23.49
2018-09-03T16:00:21.042Z,23.36
2018-09-03T16:03:26.025Z,23.26
2018-09-03T16:06:31.025Z,23.15
2018-09-03T16:09:36.006Z,23.21
2018-09-03T16:12:41.080Z,23.14
2018-09-03T16:15:46.145Z,22.73
2018-09-03T16:18:51.151Z,22.76
2018-09-03T16:21:56.192Z,22.74
2018-09-03T16:25:01.228Z,22.60
2018-09-03T16:28:06.317Z,22.60
2018-09-03T16:31:11.291Z,22.25
2018-09-03T16:34:16.299Z,22.10
2018-09-03T16:37:21.267Z,22.18
2018-09-03T16:40:26.212Z,22.25
2018-09-03T16:43:31.227Z,22.39
2018-09-03T16:46:36.190Z,22.43
2018-09-03T16:49:41.141Z,22.62
2018-09-03T16:52:46.230Z,22.46
2018-09-03T16:55:51.225Z,22.46
2018-09-03T16:58:56.177Z,22.50
2018-09-03T17:02:01.186Z,22.53
2018-09-03T17:05:06.343Z,22.50
2018-09-03T17:08:11.453Z,22.41
2018-09-03T17:11:16.273Z,22.28
2018-09-03T17:14:21.254Z,22.28
2018-09-03T17:17:26.210Z,22.33
2018-09-03T17:20:31.249Z,22.21
2018-09-03T17:23:36.137Z,22.15
2018-09-03T17:26:41.140Z,22.14
2018-09-03T17:29:46.209Z,22.11
2018-09-03T17:32:51.224Z,22.09
2018-09-03T17:35:56.144Z,22.08
2018-09-03T17:39:01.118Z,22.01
2018-09-03T17:42:06.073Z,21.95
2018-09-03T17:45:11.052Z,21.89
2018-09-03T17:48:16.023Z,21.73
2018-09-03T17:51:21.005Z,21.63
2018-09-03T17:54:26.008Z,21.42
2018-09-03T17:57:31.081Z,21.33
2018-09-03T18:00:36.009Z,21.12
2018-09-03T18:03:40.974Z,21.11
2018-09-03T18:06:45.948Z,20.99
2018-09-03T18:09:50.860Z,20.95
2018-09-03T18:12:55.784Z,20.75
2018-09-03T18:16:00.782Z,20.77
2018-09-03T18:19:05.848Z,20.81
2018-09-03T18:22:10.801Z,20.59
2018-09-03T18:25:15.728Z,20.30
2018-09-03T18:28:20.729Z,20.31
2018-09-03T18:31:25.648Z,20.43
2018-09-03T18:34:30.720Z,20.46
2018-09-03T18:37:35.705Z,20.47
2018-09-03T18:40:40.650Z,20.37
2018-09-03T18:43:45.633Z,20.10
2018-09-03T18:46:50.695Z,19.93
2018-09-03T18:50:13.352Z,19.95
2018-09-03T18:53:19.195Z,19.87
2018-09-03T18:56:24.146Z,19.91
2018-09-03T18:59:29.118Z,19.78
2018-09-03T19:02:34.187Z,19.55
2018-09-03T19:05:39.161Z,19.64
2018-09-03T19:08:44.121Z,19.71
2018-09-03T19:11:49.102Z,19.67
2018-09-03T19:14:54.053Z,19.68
2018-09-03T19:17:59.024Z,19.71
2018-09-03T19:21:04.011Z,19.70
2018-09-03T19:24:09.149Z,19.64
2018-09-03T19:27:14.168Z,19.52
2018-09-03T19:30:19.181Z,19.57
2018-09-03T19:33:24.146Z,19.58
2018-09-03T19:36:29.125Z,19.52
2018-09-03T19:39:34.105Z,19.54
2018-09-03T19:42:39.117Z,19.55
2018-09-03T19:45:44.080Z,19.51
2018-09-03T19:48:49.102Z,19.42
2018-09-03T19:51:54.072Z,19.39
2018-09-03T19:54:58.997Z,19.42
2018-09-03T19:58:04.165Z,19.39
2018-09-03T20:01:09.136Z,19.36
2018-09-03T20:04:14.458Z,19.37
2018-09-03T20:07:19.535Z,19.38
2018-09-03T20:10:24.513Z,19.38
2018-09-03T20:13:29.529Z,19.36
2018-09-03T20:16:34.528Z,19.33
2018-09-03T20:19:39.481Z,19.18
2018-09-03T20:22:44.713Z,19.01
2018-09-03T20:25:49.909Z,18.98
2018-09-03T20:28:54.858Z,19.01
2018-09-03T20:32:00.021Z,18.98
2018-09-03T20:35:05.285Z,19.09
2018-09-03T20:38:10.674Z,19.06
2018-09-03T20:41:15.652Z,19.08
2018-09-03T20:44:20.614Z,19.07
2018-09-03T20:47:25.531Z,19.06
2018-09-03T20:50:30.497Z,19.08
2018-09-03T20:53:35.448Z,19.03
2018-09-03T20:56:40.492Z,19.02
2018-09-03T20:59:45.401Z,19.01
2018-09-03T21:02:50.312Z,19.01
2018-09-03T21:05:55.289Z,19.03
2018-09-03T21:09:00.196Z,19.02
2018-09-03T21:12:05.199Z,19.00
2018-09-03T21:15:10.122Z,18.98
2018-09-03T21:18:15.058Z,18.90
2018-09-03T21:21:19.996Z,18.69
2018-09-03T21:24:24.962Z,18.68
2018-09-03T21:27:29.880Z,18.74
2018-09-03T21:30:34.803Z,18.73
2018-09-03T21:33:39.741Z,18.63
2018-09-03T21:36:44.637Z,18.65
2018-09-03T21:39:49.572Z,18.69
2018-09-03T21:42:54.481Z,18.75
2018-09-03T21:45:59.429Z,18.76
2018-09-03T21:49:04.365Z,18.75
2018-09-03T21:52:09.321Z,18.74
2018-09-03T21:55:14.236Z,18.74
2018-09-03T22:02:11.836Z,18.67
2018-09-03T22:05:16.783Z,18.62
2018-09-03T22:08:21.751Z,18.53
2018-09-03T22:11:26.725Z,18.54
2018-09-03T22:14:31.699Z,18.52
2018-09-03T22:17:36.630Z,18.47
2018-09-03T22:20:41.600Z,18.45
2018-09-03T22:23:46.549Z,18.40
2018-09-03T22:26:51.649Z,18.37
2018-09-03T22:29:56.628Z,18.40
2018-09-03T22:33:01.588Z,18.42
2018-09-03T22:36:06.529Z,18.39
2018-09-03T22:39:11.797Z,18.33
2018-09-03T22:42:16.809Z,18.36
2018-09-03T22:45:21.757Z,18.37
2018-09-03T22:48:26.705Z,18.30
2018-09-03T22:51:31.662Z,18.33
2018-09-03T22:54:36.620Z,18.38
2018-09-03T22:57:41.553Z,18.36
2018-09-03T23:00:46.468Z,18.34
2018-09-03T23:03:51.420Z,18.33
2018-09-03T23:06:56.360Z,18.18
2018-09-03T23:10:01.383Z,18.18
2018-09-03T23:13:06.325Z,18.21
2018-09-03T23:16:11.262Z,18.20
2018-09-03T23:19:16.188Z,18.17
2018-09-03T23:22:21.127Z,18.21
2018-09-03T23:25:26.061Z,18.24
2018-09-03T23:28:31.005Z,18.21
2018-09-03T23:31:35.939Z,18.23
2018-09-03T23:34:40.962Z,18.21
2018-09-03T23:37:45.939Z,18.15
2018-09-03T23:40:50.893Z,18.08
2018-09-03T23:43:55.842Z,17.86
2018-09-03T23:47:00.776Z,17.87
2018-09-03T23:50:05.734Z,17.85
2018-09-03T23:53:10.773Z,17.77
2018-09-03T23:56:15.717Z,17.81
2018-09-03T23:59:20.725Z,17.68
